sensor_id;sensor_type;location;lat;lon;timestamp;P1;durP1;ratioP1;P2;durP2;ratioP2
9559;SDS011;4818;50.860;4.648;2023-03-11T00:00:02;11.48;;;1.42;;
9559;SDS011;4818;50.860;4.648;2023-03-11T00:02:31;8.30;;;2.25;;
9559;SDS011;4818;50.860;4.648;2023-03-11T00:04:57;7.57;;;0.90;;
9559;SDS011;4818;50.860;4.648;2023-03-11T00:07:23;5.88;;;1.25;;
9559;SDS011;4818;50.860;4.648;2023-03-11T00:09:52;9.17;;;1.27;;
9559;SDS011;4818;50.860;4.648;2023-03-11T00:12:18;6.78;;;1.02;;
9559;SDS011;4818;50.860;4.648;2023-03-11T00:14:44;8.88;;;0.93;;
9559;SDS011;4818;50.860;4.648;2023-03-11T00:17:13;5.57;;;0.77;;
9559;SDS011;4818;50.860;4.648;2023-03-11T00:19:39;8.95;;;0.75;;
9559;SDS011;4818;50.860;4.648;2023-03-11T00:22:05;4.57;;;0.82;;
9559;SDS011;4818;50.860;4.648;2023-03-11T00:24:32;8.43;;;1.00;;
9559;SDS011;4818;50.860;4.648;2023-03-11T00:26:59;4.68;;;1.00;;
9559;SDS011;4818;50.860;4.648;2023-03-11T00:29:28;7.88;;;1.65;;
9559;SDS011;4818;50.860;4.648;2023-03-11T00:32:01;3.90;;;1.00;;
9559;SDS011;4818;50.860;4.648;2023-03-11T00:34:30;5.78;;;0.80;;
9559;SDS011;4818;50.860;4.648;2023-03-11T00:36:56;5.65;;;0.90;;
9559;SDS011;4818;50.860;4.648;2023-03-11T00:39:22;9.15;;;0.93;;
9559;SDS011;4818;50.860;4.648;2023-03-11T00:41:48;3.85;;;0.88;;
9559;SDS011;4818;50.860;4.648;2023-03-11T00:44:15;6.10;;;1.15;;
9559;SDS011;4818;50.860;4.648;2023-03-11T00:46:42;7.72;;;1.30;;
9559;SDS011;4818;50.860;4.648;2023-03-11T00:49:08;7.28;;;0.85;;
9559;SDS011;4818;50.860;4.648;2023-03-11T00:51:35;5.32;;;1.38;;
9559;SDS011;4818;50.860;4.648;2023-03-11T00:54:01;7.82;;;1.00;;
9559;SDS011;4818;50.860;4.648;2023-03-11T00:56:28;8.32;;;1.10;;
9559;SDS011;4818;50.860;4.648;2023-03-11T00:58:55;6.80;;;0.93;;
9559;SDS011;4818;50.860;4.648;2023-03-11T01:01:21;5.22;;;1.33;;
9559;SDS011;4818;50.860;4.648;2023-03-11T01:03:48;5.55;;;1.05;;
9559;SDS011;4818;50.860;4.648;2023-03-11T01:06:14;6.95;;;1.45;;
9559;SDS011;4818;50.860;4.648;2023-03-11T01:08:43;7.87;;;1.10;;
9559;SDS011;4818;50.860;4.648;2023-03-11T01:11:09;4.97;;;1.13;;
9559;SDS011;4818;50.860;4.648;2023-03-11T01:13:35;5.40;;;0.80;;
9559;SDS011;4818;50.860;4.648;2023-03-11T01:16:02;8.52;;;1.75;;
9559;SDS011;4818;50.860;4.648;2023-03-11T01:18:28;5.90;;;1.35;;
9559;SDS011;4818;50.860;4.648;2023-03-11T01:20:54;4.35;;;0.73;;
9559;SDS011;4818;50.860;4.648;2023-03-11T01:23:21;9.15;;;1.40;;
9559;SDS011;4818;50.860;4.648;2023-03-11T01:25:47;5.35;;;0.60;;
9559;SDS011;4818;50.860;4.648;2023-03-11T01:28:18;7.55;;;0.93;;
9559;SDS011;4818;50.860;4.648;2023-03-11T01:30:47;5.80;;;1.15;;
9559;SDS011;4818;50.860;4.648;2023-03-11T01:33:14;13.32;;;1.42;;
9559;SDS011;4818;50.860;4.648;2023-03-11T01:35:41;2.95;;;0.80;;
9559;SDS011;4818;50.860;4.648;2023-03-11T01:38:07;6.65;;;1.08;;
9559;SDS011;4818;50.860;4.648;2023-03-11T01:40:35;6.20;;;0.70;;
9559;SDS011;4818;50.860;4.648;2023-03-11T01:43:03;5.90;;;1.02;;
9559;SDS011;4818;50.860;4.648;2023-03-11T01:48:09;5.38;;;1.00;;
9559;SDS011;4818;50.860;4.648;2023-03-11T01:50:40;8.20;;;1.02;;
9559;SDS011;4818;50.860;4.648;2023-03-11T01:53:08;8.40;;;1.30;;
9559;SDS011;4818;50.860;4.648;2023-03-11T01:55:34;8.48;;;0.90;;
9559;SDS011;4818;50.860;4.648;2023-03-11T01:58:02;5.10;;;0.88;;
9559;SDS011;4818;50.860;4.648;2023-03-11T02:00:30;4.30;;;0.60;;
9559;SDS011;4818;50.860;4.648;2023-03-11T02:03:01;4.07;;;0.60;;
9559;SDS011;4818;50.860;4.648;2023-03-11T02:05:36;6.07;;;0.95;;
9559;SDS011;4818;50.860;4.648;2023-03-11T02:08:05;8.85;;;0.80;;
9559;SDS011;4818;50.860;4.648;2023-03-11T02:10:32;5.13;;;0.70;;
9559;SDS011;4818;50.860;4.648;2023-03-11T02:13:01;5.80;;;0.82;;
9559;SDS011;4818;50.860;4.648;2023-03-11T02:15:35;3.70;;;0.63;;
9559;SDS011;4818;50.860;4.648;2023-03-11T02:18:14;7.07;;;0.75;;
9559;SDS011;4818;50.860;4.648;2023-03-11T02:23:08;8.40;;;1.02;;
9559;SDS011;4818;50.860;4.648;2023-03-11T02:28:06;3.03;;;1.35;;
9559;SDS011;4818;50.860;4.648;2023-03-11T02:30:33;2.92;;;0.40;;
9559;SDS011;4818;50.860;4.648;2023-03-11T02:33:04;4.78;;;1.20;;
9559;SDS011;4818;50.860;4.648;2023-03-11T02:35:31;6.88;;;0.80;;
9559;SDS011;4818;50.860;4.648;2023-03-11T02:37:57;4.95;;;0.93;;
9559;SDS011;4818;50.860;4.648;2023-03-11T02:42:53;6.88;;;0.90;;
9559;SDS011;4818;50.860;4.648;2023-03-11T02:45:20;3.15;;;0.88;;
9559;SDS011;4818;50.860;4.648;2023-03-11T02:47:47;4.88;;;0.85;;
9559;SDS011;4818;50.860;4.648;2023-03-11T02:50:14;7.28;;;0.70;;
9559;SDS011;4818;50.860;4.648;2023-03-11T02:52:41;3.65;;;0.77;;
9559;SDS011;4818;50.860;4.648;2023-03-11T02:55:07;9.95;;;1.30;;
9559;SDS011;4818;50.860;4.648;2023-03-11T02:57:36;8.13;;;1.00;;
9559;SDS011;4818;50.860;4.648;2023-03-11T03:00:02;7.80;;;0.80;;
9559;SDS011;4818;50.860;4.648;2023-03-11T03:02:35;14.00;;;1.88;;
9559;SDS011;4818;50.860;4.648;2023-03-11T03:05:02;7.07;;;1.08;;
9559;SDS011;4818;50.860;4.648;2023-03-11T03:07:28;5.55;;;1.27;;
9559;SDS011;4818;50.860;4.648;2023-03-11T03:09:54;6.38;;;0.60;;
9559;SDS011;4818;50.860;4.648;2023-03-11T03:12:20;6.25;;;1.85;;
9559;SDS011;4818;50.860;4.648;2023-03-11T03:14:47;13.02;;;0.98;;
9559;SDS011;4818;50.860;4.648;2023-03-11T03:17:13;6.85;;;1.73;;
9559;SDS011;4818;50.860;4.648;2023-03-11T03:19:39;2.38;;;0.70;;
9559;SDS011;4818;50.860;4.648;2023-03-11T03:22:05;7.30;;;1.42;;
9559;SDS011;4818;50.860;4.648;2023-03-11T03:24:32;5.68;;;1.05;;
9559;SDS011;4818;50.860;4.648;2023-03-11T03:26:58;4.80;;;1.08;;
9559;SDS011;4818;50.860;4.648;2023-03-11T03:29:24;7.28;;;2.15;;
9559;SDS011;4818;50.860;4.648;2023-03-11T03:31:50;6.63;;;1.30;;
9559;SDS011;4818;50.860;4.648;2023-03-11T03:34:17;3.10;;;0.90;;
9559;SDS011;4818;50.860;4.648;2023-03-11T03:36:43;5.55;;;1.00;;
9559;SDS011;4818;50.860;4.648;2023-03-11T03:39:09;3.90;;;1.35;;
9559;SDS011;4818;50.860;4.648;2023-03-11T03:41:35;5.13;;;1.20;;
9559;SDS011;4818;50.860;4.648;2023-03-11T03:44:02;5.15;;;1.08;;
9559;SDS011;4818;50.860;4.648;2023-03-11T03:46:28;4.78;;;1.20;;
9559;SDS011;4818;50.860;4.648;2023-03-11T03:48:54;6.30;;;1.15;;
9559;SDS011;4818;50.860;4.648;2023-03-11T03:51:21;6.30;;;1.42;;
9559;SDS011;4818;50.860;4.648;2023-03-11T03:53:47;4.00;;;1.15;;
9559;SDS011;4818;50.860;4.648;2023-03-11T03:56:15;7.28;;;1.55;;
9559;SDS011;4818;50.860;4.648;2023-03-11T03:58:41;5.57;;;1.38;;
9559;SDS011;4818;50.860;4.648;2023-03-11T04:01:10;6.35;;;1.23;;
9559;SDS011;4818;50.860;4.648;2023-03-11T04:03:37;6.18;;;1.25;;
9559;SDS011;4818;50.860;4.648;2023-03-11T04:08:42;3.80;;;1.13;;
9559;SDS011;4818;50.860;4.648;2023-03-11T04:11:11;4.95;;;0.70;;
9559;SDS011;4818;50.860;4.648;2023-03-11T04:13:37;7.20;;;1.20;;
9559;SDS011;4818;50.860;4.648;2023-03-11T04:16:09;7.13;;;1.23;;
9559;SDS011;4818;50.860;4.648;2023-03-11T04:18:35;3.85;;;1.55;;
9559;SDS011;4818;50.860;4.648;2023-03-11T04:21:05;4.43;;;0.98;;
9559;SDS011;4818;50.860;4.648;2023-03-11T04:23:31;7.15;;;1.48;;
9559;SDS011;4818;50.860;4.648;2023-03-11T04:26:00;6.68;;;1.52;;
9559;SDS011;4818;50.860;4.648;2023-03-11T04:28:26;8.25;;;1.70;;
9559;SDS011;4818;50.860;4.648;2023-03-11T04:30:57;5.78;;;1.70;;
9559;SDS011;4818;50.860;4.648;2023-03-11T04:33:23;10.80;;;1.27;;
9559;SDS011;4818;50.860;4.648;2023-03-11T04:35:50;8.52;;;1.63;;
9559;SDS011;4818;50.860;4.648;2023-03-11T04:38:16;6.13;;;2.05;;
9559;SDS011;4818;50.860;4.648;2023-03-11T04:40:42;8.00;;;1.90;;
9559;SDS011;4818;50.860;4.648;2023-03-11T04:43:08;7.43;;;1.83;;
9559;SDS011;4818;50.860;4.648;2023-03-11T04:45:37;6.72;;;2.00;;
9559;SDS011;4818;50.860;4.648;2023-03-11T04:48:03;5.20;;;1.33;;
9559;SDS011;4818;50.860;4.648;2023-03-11T04:50:29;6.05;;;1.23;;
9559;SDS011;4818;50.860;4.648;2023-03-11T04:53:01;9.13;;;1.58;;
9559;SDS011;4818;50.860;4.648;2023-03-11T04:55:32;6.57;;;1.45;;
9559;SDS011;4818;50.860;4.648;2023-03-11T04:57:59;11.50;;;2.03;;
9559;SDS011;4818;50.860;4.648;2023-03-11T05:00:25;7.22;;;1.73;;
9559;SDS011;4818;50.860;4.648;2023-03-11T05:02:51;5.72;;;1.35;;
9559;SDS011;4818;50.860;4.648;2023-03-11T05:05:17;12.27;;;1.80;;
9559;SDS011;4818;50.860;4.648;2023-03-11T05:07:44;4.85;;;1.33;;
9559;SDS011;4818;50.860;4.648;2023-03-11T05:10:11;10.30;;;1.98;;
9559;SDS011;4818;50.860;4.648;2023-03-11T05:12:37;8.43;;;1.85;;
9559;SDS011;4818;50.860;4.648;2023-03-11T05:15:03;6.32;;;1.48;;
9559;SDS011;4818;50.860;4.648;2023-03-11T05:17:30;6.97;;;2.33;;
9559;SDS011;4818;50.860;4.648;2023-03-11T05:19:56;5.20;;;1.23;;
9559;SDS011;4818;50.860;4.648;2023-03-11T05:22:22;5.97;;;1.58;;
9559;SDS011;4818;50.860;4.648;2023-03-11T05:24:49;3.65;;;0.90;;
9559;SDS011;4818;50.860;4.648;2023-03-11T05:27:15;4.35;;;1.42;;
9559;SDS011;4818;50.860;4.648;2023-03-11T05:29:42;6.80;;;2.17;;
9559;SDS011;4818;50.860;4.648;2023-03-11T05:32:09;8.40;;;1.80;;
9559;SDS011;4818;50.860;4.648;2023-03-11T05:34:36;7.53;;;2.05;;
9559;SDS011;4818;50.860;4.648;2023-03-11T05:37:02;4.53;;;1.70;;
9559;SDS011;4818;50.860;4.648;2023-03-11T05:39:28;5.15;;;1.55;;
9559;SDS011;4818;50.860;4.648;2023-03-11T05:41:55;5.63;;;2.00;;
9559;SDS011;4818;50.860;4.648;2023-03-11T05:44:21;7.10;;;1.42;;
9559;SDS011;4818;50.860;4.648;2023-03-11T05:46:47;6.53;;;1.40;;
9559;SDS011;4818;50.860;4.648;2023-03-11T05:49:14;5.95;;;1.58;;
9559;SDS011;4818;50.860;4.648;2023-03-11T05:51:40;8.30;;;1.50;;
9559;SDS011;4818;50.860;4.648;2023-03-11T05:54:06;6.07;;;2.00;;
9559;SDS011;4818;50.860;4.648;2023-03-11T05:56:39;7.65;;;2.10;;
9559;SDS011;4818;50.860;4.648;2023-03-11T05:59:06;5.93;;;1.90;;
9559;SDS011;4818;50.860;4.648;2023-03-11T06:01:32;7.72;;;1.90;;
9559;SDS011;4818;50.860;4.648;2023-03-11T06:03:59;8.07;;;1.55;;
9559;SDS011;4818;50.860;4.648;2023-03-11T06:06:26;6.53;;;2.22;;
9559;SDS011;4818;50.860;4.648;2023-03-11T06:08:53;10.95;;;2.50;;
9559;SDS011;4818;50.860;4.648;2023-03-11T06:11:19;6.63;;;1.95;;
9559;SDS011;4818;50.860;4.648;2023-03-11T06:13:50;6.78;;;1.83;;
9559;SDS011;4818;50.860;4.648;2023-03-11T06:16:17;12.18;;;2.42;;
9559;SDS011;4818;50.860;4.648;2023-03-11T06:18:43;5.05;;;2.10;;
9559;SDS011;4818;50.860;4.648;2023-03-11T06:21:10;6.97;;;2.05;;
9559;SDS011;4818;50.860;4.648;2023-03-11T06:23:40;8.18;;;3.28;;
9559;SDS011;4818;50.860;4.648;2023-03-11T06:26:06;9.00;;;3.25;;
9559;SDS011;4818;50.860;4.648;2023-03-11T06:28:32;6.40;;;2.55;;
9559;SDS011;4818;50.860;4.648;2023-03-11T06:31:07;8.63;;;2.47;;
9559;SDS011;4818;50.860;4.648;2023-03-11T06:33:34;6.95;;;2.25;;
9559;SDS011;4818;50.860;4.648;2023-03-11T06:36:00;7.10;;;2.70;;
9559;SDS011;4818;50.860;4.648;2023-03-11T06:38:27;10.75;;;2.35;;
9559;SDS011;4818;50.860;4.648;2023-03-11T06:40:57;6.15;;;1.67;;
9559;SDS011;4818;50.860;4.648;2023-03-11T06:43:23;5.38;;;2.10;;
9559;SDS011;4818;50.860;4.648;2023-03-11T06:45:49;7.70;;;2.67;;
9559;SDS011;4818;50.860;4.648;2023-03-11T06:48:15;13.55;;;3.40;;
9559;SDS011;4818;50.860;4.648;2023-03-11T06:50:42;6.90;;;2.58;;
9559;SDS011;4818;50.860;4.648;2023-03-11T06:53:10;6.68;;;2.78;;
9559;SDS011;4818;50.860;4.648;2023-03-11T06:55:36;8.43;;;2.72;;
9559;SDS011;4818;50.860;4.648;2023-03-11T06:58:02;7.32;;;2.92;;
9559;SDS011;4818;50.860;4.648;2023-03-11T07:00:29;9.13;;;2.33;;
9559;SDS011;4818;50.860;4.648;2023-03-11T07:02:55;5.40;;;1.70;;
9559;SDS011;4818;50.860;4.648;2023-03-11T07:05:21;7.32;;;2.42;;
9559;SDS011;4818;50.860;4.648;2023-03-11T07:07:47;6.80;;;1.45;;
9559;SDS011;4818;50.860;4.648;2023-03-11T07:10:14;4.30;;;1.45;;
9559;SDS011;4818;50.860;4.648;2023-03-11T07:12:42;3.60;;;1.65;;
9559;SDS011;4818;50.860;4.648;2023-03-11T07:15:11;7.20;;;1.73;;
9559;SDS011;4818;50.860;4.648;2023-03-11T07:17:38;6.43;;;1.60;;
9559;SDS011;4818;50.860;4.648;2023-03-11T07:20:04;3.78;;;1.52;;
9559;SDS011;4818;50.860;4.648;2023-03-11T07:22:30;10.50;;;1.67;;
9559;SDS011;4818;50.860;4.648;2023-03-11T07:25:01;8.05;;;1.33;;
9559;SDS011;4818;50.860;4.648;2023-03-11T07:27:28;5.80;;;1.15;;
9559;SDS011;4818;50.860;4.648;2023-03-11T07:29:59;5.13;;;1.75;;
9559;SDS011;4818;50.860;4.648;2023-03-11T07:32:28;7.63;;;1.38;;
9559;SDS011;4818;50.860;4.648;2023-03-11T07:34:54;8.13;;;1.67;;
9559;SDS011;4818;50.860;4.648;2023-03-11T07:37:20;5.45;;;1.25;;
9559;SDS011;4818;50.860;4.648;2023-03-11T07:39:46;3.85;;;1.17;;
9559;SDS011;4818;50.860;4.648;2023-03-11T07:42:13;4.72;;;1.00;;
9559;SDS011;4818;50.860;4.648;2023-03-11T07:44:39;2.22;;;1.20;;
9559;SDS011;4818;50.860;4.648;2023-03-11T07:47:05;5.82;;;1.30;;
9559;SDS011;4818;50.860;4.648;2023-03-11T07:49:31;4.22;;;0.98;;
9559;SDS011;4818;50.860;4.648;2023-03-11T07:51:58;5.57;;;1.10;;
9559;SDS011;4818;50.860;4.648;2023-03-11T07:54:24;3.80;;;0.98;;
9559;SDS011;4818;50.860;4.648;2023-03-11T07:56:51;3.47;;;1.17;;
9559;SDS011;4818;50.860;4.648;2023-03-11T07:59:17;7.70;;;1.10;;
9559;SDS011;4818;50.860;4.648;2023-03-11T08:01:43;6.70;;;1.27;;
9559;SDS011;4818;50.860;4.648;2023-03-11T08:04:12;5.43;;;1.50;;
9559;SDS011;4818;50.860;4.648;2023-03-11T08:06:41;2.45;;;0.95;;
9559;SDS011;4818;50.860;4.648;2023-03-11T08:09:08;3.78;;;1.23;;
9559;SDS011;4818;50.860;4.648;2023-03-11T08:11:35;4.05;;;1.02;;
9559;SDS011;4818;50.860;4.648;2023-03-11T08:14:01;3.70;;;1.10;;
9559;SDS011;4818;50.860;4.648;2023-03-11T08:16:28;3.05;;;1.27;;
9559;SDS011;4818;50.860;4.648;2023-03-11T08:18:55;3.40;;;1.30;;
9559;SDS011;4818;50.860;4.648;2023-03-11T08:21:22;3.60;;;1.42;;
9559;SDS011;4818;50.860;4.648;2023-03-11T08:23:49;6.55;;;1.23;;
9559;SDS011;4818;50.860;4.648;2023-03-11T08:26:16;5.65;;;1.65;;
9559;SDS011;4818;50.860;4.648;2023-03-11T08:28:43;7.07;;;1.70;;
9559;SDS011;4818;50.860;4.648;2023-03-11T08:31:16;5.07;;;1.70;;
9559;SDS011;4818;50.860;4.648;2023-03-11T08:33:44;4.60;;;1.45;;
9559;SDS011;4818;50.860;4.648;2023-03-11T08:36:11;7.68;;;1.88;;
9559;SDS011;4818;50.860;4.648;2023-03-11T08:38:39;3.42;;;1.00;;
9559;SDS011;4818;50.860;4.648;2023-03-11T08:41:05;4.35;;;1.27;;
9559;SDS011;4818;50.860;4.648;2023-03-11T08:43:32;6.03;;;1.20;;
9559;SDS011;4818;50.860;4.648;2023-03-11T08:46:02;4.78;;;1.17;;
9559;SDS011;4818;50.860;4.648;2023-03-11T08:48:31;4.82;;;1.33;;
9559;SDS011;4818;50.860;4.648;2023-03-11T08:50:57;3.58;;;1.08;;
9559;SDS011;4818;50.860;4.648;2023-03-11T08:53:27;4.53;;;1.15;;
9559;SDS011;4818;50.860;4.648;2023-03-11T08:55:53;4.70;;;1.13;;
9559;SDS011;4818;50.860;4.648;2023-03-11T08:58:19;5.15;;;0.88;;
9559;SDS011;4818;50.860;4.648;2023-03-11T09:00:48;6.85;;;1.00;;
9559;SDS011;4818;50.860;4.648;2023-03-11T09:03:14;3.33;;;0.85;;
9559;SDS011;4818;50.860;4.648;2023-03-11T09:05:40;6.75;;;1.25;;
9559;SDS011;4818;50.860;4.648;2023-03-11T09:08:06;5.20;;;1.20;;
9559;SDS011;4818;50.860;4.648;2023-03-11T09:10:32;3.63;;;1.13;;
9559;SDS011;4818;50.860;4.648;2023-03-11T09:12:59;6.13;;;0.90;;
9559;SDS011;4818;50.860;4.648;2023-03-11T09:15:27;4.57;;;0.80;;
9559;SDS011;4818;50.860;4.648;2023-03-11T09:17:54;3.88;;;0.73;;
9559;SDS011;4818;50.860;4.648;2023-03-11T09:20:20;6.97;;;0.85;;
9559;SDS011;4818;50.860;4.648;2023-03-11T09:22:52;4.35;;;0.60;;
9559;SDS011;4818;50.860;4.648;2023-03-11T09:25:21;7.30;;;1.00;;
9559;SDS011;4818;50.860;4.648;2023-03-11T09:27:52;4.53;;;0.90;;
9559;SDS011;4818;50.860;4.648;2023-03-11T09:30:19;5.38;;;0.93;;
9559;SDS011;4818;50.860;4.648;2023-03-11T09:32:46;3.05;;;0.60;;
9559;SDS011;4818;50.860;4.648;2023-03-11T09:35:17;3.60;;;0.65;;
9559;SDS011;4818;50.860;4.648;2023-03-11T09:37:43;5.13;;;0.68;;
9559;SDS011;4818;50.860;4.648;2023-03-11T09:40:11;4.70;;;1.20;;
9559;SDS011;4818;50.860;4.648;2023-03-11T09:42:43;2.83;;;0.43;;
9559;SDS011;4818;50.860;4.648;2023-03-11T09:45:29;2.10;;;0.38;;
9559;SDS011;4818;50.860;4.648;2023-03-11T09:57:51;4.47;;;0.43;;
9559;SDS011;4818;50.860;4.648;2023-03-11T10:00:19;1.60;;;0.30;;
9559;SDS011;4818;50.860;4.648;2023-03-11T10:02:45;1.13;;;0.25;;
9559;SDS011;4818;50.860;4.648;2023-03-11T10:05:28;3.72;;;0.35;;
9559;SDS011;4818;50.860;4.648;2023-03-11T10:08:06;3.45;;;0.60;;
9559;SDS011;4818;50.860;4.648;2023-03-11T10:10:38;3.28;;;0.30;;
9559;SDS011;4818;50.860;4.648;2023-03-11T10:13:50;1.33;;;0.40;;
9559;SDS011;4818;50.860;4.648;2023-03-11T10:26:32;4.63;;;0.40;;
9559;SDS011;4818;50.860;4.648;2023-03-11T10:31:36;2.83;;;0.38;;
9559;SDS011;4818;50.860;4.648;2023-03-11T10:34:11;4.88;;;0.80;;
9559;SDS011;4818;50.860;4.648;2023-03-11T10:36:42;3.25;;;0.32;;
9559;SDS011;4818;50.860;4.648;2023-03-11T10:39:11;3.08;;;0.45;;
9559;SDS011;4818;50.860;4.648;2023-03-11T10:42:11;1.13;;;0.28;;
9559;SDS011;4818;50.860;4.648;2023-03-11T10:44:34;4.00;;;0.30;;
9559;SDS011;4818;50.860;4.648;2023-03-11T10:47:01;3.33;;;0.40;;
9559;SDS011;4818;50.860;4.648;2023-03-11T10:49:28;1.73;;;0.20;;
9559;SDS011;4818;50.860;4.648;2023-03-11T10:51:55;1.90;;;0.17;;
9559;SDS011;4818;50.860;4.648;2023-03-11T10:54:38;4.78;;;0.30;;
9559;SDS011;4818;50.860;4.648;2023-03-11T10:59:49;1.80;;;0.25;;
9559;SDS011;4818;50.860;4.648;2023-03-11T11:02:26;5.22;;;0.60;;
9559;SDS011;4818;50.860;4.648;2023-03-11T11:07:36;1.33;;;0.43;;
9559;SDS011;4818;50.860;4.648;2023-03-11T11:12:35;2.75;;;0.40;;
9559;SDS011;4818;50.860;4.648;2023-03-11T11:15:01;2.88;;;0.20;;
9559;SDS011;4818;50.860;4.648;2023-03-11T11:17:29;4.07;;;0.40;;
9559;SDS011;4818;50.860;4.648;2023-03-11T11:19:56;2.53;;;0.30;;
9559;SDS011;4818;50.860;4.648;2023-03-11T11:22:23;3.55;;;0.22;;
9559;SDS011;4818;50.860;4.648;2023-03-11T11:24:51;3.88;;;0.25;;
9559;SDS011;4818;50.860;4.648;2023-03-11T11:29:46;4.40;;;0.50;;
9559;SDS011;4818;50.860;4.648;2023-03-11T11:32:23;3.17;;;0.30;;
9559;SDS011;4818;50.860;4.648;2023-03-11T11:37:22;3.13;;;0.20;;
9559;SDS011;4818;50.860;4.648;2023-03-11T11:39:54;9.65;;;0.50;;
9559;SDS011;4818;50.860;4.648;2023-03-11T11:42:23;3.50;;;0.28;;
9559;SDS011;4818;50.860;4.648;2023-03-11T11:44:52;5.03;;;0.43;;
9559;SDS011;4818;50.860;4.648;2023-03-11T11:47:22;7.05;;;0.65;;
9559;SDS011;4818;50.860;4.648;2023-03-11T11:49:57;3.67;;;0.35;;
9559;SDS011;4818;50.860;4.648;2023-03-11T11:55:39;5.32;;;0.38;;
9559;SDS011;4818;50.860;4.648;2023-03-11T11:58:09;4.20;;;0.20;;
9559;SDS011;4818;50.860;4.648;2023-03-11T12:00:40;5.70;;;0.25;;
9559;SDS011;4818;50.860;4.648;2023-03-11T12:06:53;3.60;;;0.20;;
9559;SDS011;4818;50.860;4.648;2023-03-11T12:11:38;6.88;;;0.45;;
9559;SDS011;4818;50.860;4.648;2023-03-11T12:14:21;2.47;;;0.25;;
9559;SDS011;4818;50.860;4.648;2023-03-11T12:19:29;2.83;;;0.20;;
9559;SDS011;4818;50.860;4.648;2023-03-11T12:26:57;3.10;;;0.15;;
9559;SDS011;4818;50.860;4.648;2023-03-11T12:29:25;4.82;;;0.10;;
9559;SDS011;4818;50.860;4.648;2023-03-11T12:31:53;2.92;;;0.10;;
9559;SDS011;4818;50.860;4.648;2023-03-11T12:34:23;2.85;;;0.20;;
9559;SDS011;4818;50.860;4.648;2023-03-11T12:36:49;1.47;;;0.10;;
9559;SDS011;4818;50.860;4.648;2023-03-11T12:39:23;4.65;;;0.10;;
9559;SDS011;4818;50.860;4.648;2023-03-11T12:44:38;2.83;;;0.38;;
9559;SDS011;4818;50.860;4.648;2023-03-11T12:54:37;4.05;;;0.20;;
9559;SDS011;4818;50.860;4.648;2023-03-11T13:04:58;4.05;;;0.17;;
9559;SDS011;4818;50.860;4.648;2023-03-11T13:30:55;6.07;;;0.30;;
9559;SDS011;4818;50.860;4.648;2023-03-11T13:33:24;1.85;;;0.15;;
9559;SDS011;4818;50.860;4.648;2023-03-11T13:35:59;6.38;;;0.70;;
9559;SDS011;4818;50.860;4.648;2023-03-11T13:41:03;2.03;;;0.20;;
9559;SDS011;4818;50.860;4.648;2023-03-11T13:43:41;5.13;;;0.47;;
9559;SDS011;4818;50.860;4.648;2023-03-11T13:46:13;5.43;;;0.20;;
9559;SDS011;4818;50.860;4.648;2023-03-11T13:48:45;5.68;;;0.50;;
9559;SDS011;4818;50.860;4.648;2023-03-11T13:51:14;4.03;;;0.20;;
9559;SDS011;4818;50.860;4.648;2023-03-11T13:56:30;3.33;;;0.57;;
9559;SDS011;4818;50.860;4.648;2023-03-11T14:01:52;2.78;;;0.30;;
9559;SDS011;4818;50.860;4.648;2023-03-11T14:04:20;1.83;;;0.15;;
9559;SDS011;4818;50.860;4.648;2023-03-11T14:06:48;3.33;;;0.38;;
9559;SDS011;4818;50.860;4.648;2023-03-11T14:09:19;8.27;;;0.30;;
9559;SDS011;4818;50.860;4.648;2023-03-11T14:11:45;1.92;;;0.22;;
9559;SDS011;4818;50.860;4.648;2023-03-11T14:14:32;3.00;;;0.52;;
9559;SDS011;4818;50.860;4.648;2023-03-11T14:17:00;2.65;;;0.35;;
9559;SDS011;4818;50.860;4.648;2023-03-11T14:19:28;0.80;;;0.10;;
9559;SDS011;4818;50.860;4.648;2023-03-11T14:21:54;3.22;;;0.32;;
9559;SDS011;4818;50.860;4.648;2023-03-11T14:24:24;4.53;;;0.40;;
9559;SDS011;4818;50.860;4.648;2023-03-11T14:26:51;2.53;;;0.30;;
9559;SDS011;4818;50.860;4.648;2023-03-11T14:29:39;0.77;;;0.20;;
9559;SDS011;4818;50.860;4.648;2023-03-11T14:32:24;4.20;;;0.60;;
9559;SDS011;4818;50.860;4.648;2023-03-11T14:34:50;3.30;;;0.22;;
9559;SDS011;4818;50.860;4.648;2023-03-11T14:37:23;2.05;;;0.20;;
9559;SDS011;4818;50.860;4.648;2023-03-11T14:39:50;4.75;;;0.95;;
9559;SDS011;4818;50.860;4.648;2023-03-11T14:44:52;2.65;;;0.38;;
9559;SDS011;4818;50.860;4.648;2023-03-11T14:47:28;4.30;;;1.20;;
9559;SDS011;4818;50.860;4.648;2023-03-11T14:50:00;2.30;;;0.10;;
9559;SDS011;4818;50.860;4.648;2023-03-11T14:52:37;3.22;;;0.25;;
9559;SDS011;4818;50.860;4.648;2023-03-11T14:55:11;7.57;;;0.40;;
9559;SDS011;4818;50.860;4.648;2023-03-11T14:57:39;2.85;;;0.20;;
9559;SDS011;4818;50.860;4.648;2023-03-11T15:00:10;6.38;;;0.50;;
9559;SDS011;4818;50.860;4.648;2023-03-11T15:02:44;5.00;;;0.30;;
9559;SDS011;4818;50.860;4.648;2023-03-11T15:05:20;4.25;;;0.30;;
9559;SDS011;4818;50.860;4.648;2023-03-11T15:07:51;4.75;;;0.60;;
9559;SDS011;4818;50.860;4.648;2023-03-11T15:10:21;5.70;;;0.52;;
9559;SDS011;4818;50.860;4.648;2023-03-11T15:12:48;1.55;;;0.30;;
9559;SDS011;4818;50.860;4.648;2023-03-11T15:15:27;2.35;;;0.50;;
9559;SDS011;4818;50.860;4.648;2023-03-11T15:17:55;2.15;;;0.57;;
9559;SDS011;4818;50.860;4.648;2023-03-11T15:20:22;4.50;;;0.30;;
9559;SDS011;4818;50.860;4.648;2023-03-11T15:22:52;2.42;;;0.20;;
9559;SDS011;4818;50.860;4.648;2023-03-11T15:25:22;5.35;;;0.68;;
9559;SDS011;4818;50.860;4.648;2023-03-11T15:27:48;5.30;;;0.40;;
9559;SDS011;4818;50.860;4.648;2023-03-11T15:32:44;3.97;;;0.35;;
9559;SDS011;4818;50.860;4.648;2023-03-11T15:35:14;5.70;;;0.32;;
9559;SDS011;4818;50.860;4.648;2023-03-11T15:37:41;6.15;;;0.80;;
9559;SDS011;4818;50.860;4.648;2023-03-11T15:42:37;2.90;;;0.30;;
9559;SDS011;4818;50.860;4.648;2023-03-11T15:45:14;5.13;;;0.20;;
9559;SDS011;4818;50.860;4.648;2023-03-11T15:47:41;2.28;;;0.20;;
9559;SDS011;4818;50.860;4.648;2023-03-11T15:52:39;3.05;;;0.32;;
9559;SDS011;4818;50.860;4.648;2023-03-11T15:55:06;8.02;;;1.30;;
9559;SDS011;4818;50.860;4.648;2023-03-11T15:57:32;6.55;;;0.95;;
9559;SDS011;4818;50.860;4.648;2023-03-11T15:59:59;5.45;;;0.50;;
9559;SDS011;4818;50.860;4.648;2023-03-11T16:02:27;3.10;;;0.30;;
9559;SDS011;4818;50.860;4.648;2023-03-11T16:04:54;2.85;;;0.50;;
9559;SDS011;4818;50.860;4.648;2023-03-11T16:07:20;2.83;;;0.55;;
9559;SDS011;4818;50.860;4.648;2023-03-11T16:09:46;4.03;;;0.30;;
9559;SDS011;4818;50.860;4.648;2023-03-11T16:12:13;4.13;;;0.30;;
9559;SDS011;4818;50.860;4.648;2023-03-11T16:14:41;3.88;;;0.30;;
9559;SDS011;4818;50.860;4.648;2023-03-11T16:17:07;2.90;;;0.30;;
9559;SDS011;4818;50.860;4.648;2023-03-11T16:19:34;2.45;;;0.20;;
9559;SDS011;4818;50.860;4.648;2023-03-11T16:22:00;2.08;;;0.20;;
9559;SDS011;4818;50.860;4.648;2023-03-11T16:24:27;1.70;;;0.20;;
9559;SDS011;4818;50.860;4.648;2023-03-11T16:26:53;5.30;;;0.38;;
9559;SDS011;4818;50.860;4.648;2023-03-11T16:29:20;3.30;;;0.57;;
9559;SDS011;4818;50.860;4.648;2023-03-11T16:31:48;5.18;;;0.82;;
9559;SDS011;4818;50.860;4.648;2023-03-11T16:34:14;5.95;;;0.30;;
9559;SDS011;4818;50.860;4.648;2023-03-11T16:36:40;5.50;;;0.30;;
9559;SDS011;4818;50.860;4.648;2023-03-11T16:39:06;2.67;;;0.20;;
9559;SDS011;4818;50.860;4.648;2023-03-11T16:41:39;3.80;;;0.20;;
9559;SDS011;4818;50.860;4.648;2023-03-11T16:44:06;10.48;;;1.15;;
9559;SDS011;4818;50.860;4.648;2023-03-11T16:46:32;2.28;;;0.40;;
9559;SDS011;4818;50.860;4.648;2023-03-11T16:48:59;4.57;;;0.30;;
9559;SDS011;4818;50.860;4.648;2023-03-11T16:51:25;5.68;;;0.28;;
9559;SDS011;4818;50.860;4.648;2023-03-11T16:53:54;2.60;;;0.20;;
9559;SDS011;4818;50.860;4.648;2023-03-11T16:56:29;7.57;;;0.30;;
9559;SDS011;4818;50.860;4.648;2023-03-11T16:58:56;6.35;;;0.38;;
9559;SDS011;4818;50.860;4.648;2023-03-11T17:01:22;3.03;;;0.20;;
9559;SDS011;4818;50.860;4.648;2023-03-11T17:03:48;1.58;;;0.20;;
9559;SDS011;4818;50.860;4.648;2023-03-11T17:06:16;1.98;;;0.32;;
9559;SDS011;4818;50.860;4.648;2023-03-11T17:08:43;4.20;;;0.30;;
9559;SDS011;4818;50.860;4.648;2023-03-11T17:13:39;7.63;;;0.60;;
9559;SDS011;4818;50.860;4.648;2023-03-11T17:16:05;3.55;;;0.28;;
9559;SDS011;4818;50.860;4.648;2023-03-11T17:18:31;2.50;;;0.30;;
9559;SDS011;4818;50.860;4.648;2023-03-11T17:20:57;4.85;;;0.40;;
9559;SDS011;4818;50.860;4.648;2023-03-11T17:23:26;1.58;;;0.20;;
9559;SDS011;4818;50.860;4.648;2023-03-11T17:25:52;1.92;;;0.20;;
9559;SDS011;4818;50.860;4.648;2023-03-11T17:28:18;3.70;;;0.70;;